createdAt,value
2023-04-24T00:03:00.863Z,96018.44
2023-04-24T00:08:03.176Z,95996.84
2023-04-24T00:13:06.428Z,96007.38
2023-04-24T00:18:08.841Z,95979.84
2023-04-24T00:23:11.565Z,95988.69
2023-04-24T00:28:14.148Z,95993.13
2023-04-24T00:33:17.065Z,95978.84
2023-04-24T00:38:19.902Z,95972.88
2023-04-24T00:43:23.234Z,95977.97
2023-04-24T00:48:30.843Z,95967.91
2023-04-24T00:53:34.141Z,95982.22
2023-04-24T00:58:37.193Z,95977.13
2023-04-24T01:03:40.346Z,95976.78
2023-04-24T01:08:43.298Z,95969.81
2023-04-24T01:13:46.808Z,95964.38
2023-04-24T01:18:49.747Z,95980.09
2023-04-24T01:23:54.601Z,95969.28
2023-04-24T01:28:57.721Z,95978.09
2023-04-24T01:34:00.684Z,95963.44
2023-04-24T01:39:04.708Z,95973.63
2023-04-24T01:44:06.969Z,95947.69
2023-04-24T01:49:11.729Z,95930.50
2023-04-24T01:54:14.676Z,95950.69
2023-04-24T01:59:19.297Z,95948.47
2023-04-24T02:04:21.997Z,95910.56
2023-04-24T02:09:24.828Z,95935.97
2023-04-24T02:14:27.641Z,95931.91
2023-04-24T02:19:30.438Z,95941.91
2023-04-24T02:24:32.996Z,95911.56
2023-04-24T02:29:36.134Z,95932.72
2023-04-24T02:34:38.652Z,95925.47
2023-04-24T02:39:41.432Z,95921.53
2023-04-24T02:44:44.406Z,95919.63
2023-04-24T02:49:47.147Z,95919.91
2023-04-24T02:54:49.764Z,95929.31
2023-04-24T02:59:52.559Z,95925.00
2023-04-24T03:04:56.229Z,95924.91
2023-04-24T03:09:59.614Z,95908.56
2023-04-24T03:15:03.569Z,95925.03
2023-04-24T03:20:12.259Z,95917.78
2023-04-24T03:25:15.378Z,95912.53
2023-04-24T03:30:18.116Z,95890.72
2023-04-24T03:35:30.173Z,95915.13
2023-04-24T03:40:37.212Z,95906.94
2023-04-24T03:45:47.806Z,95897.06
2023-04-24T03:50:51.712Z,95905.41
2023-04-24T03:55:54.908Z,95913.19
2023-04-24T04:00:59.474Z,95917.84
2023-04-24T04:06:20.728Z,95917.78
2023-04-24T04:11:23.662Z,95932.28
2023-04-24T04:16:26.959Z,95932.34
2023-04-24T04:21:35.674Z,95927.38
2023-04-24T04:26:48.448Z,95925.94
2023-04-24T04:32:11.485Z,95934.19
2023-04-24T04:37:15.610Z,95930.06
2023-04-24T04:42:28.416Z,95938.78
2023-04-24T04:47:33.314Z,95949.53
2023-04-24T04:52:37.584Z,95955.38
2023-04-24T04:58:02.964Z,95942.59
2023-04-24T05:03:20.058Z,95931.59
2023-04-24T05:08:27.970Z,95914.72
2023-04-24T05:13:39.762Z,95922.78
2023-04-24T05:18:49.425Z,95905.72
2023-04-24T05:23:55.831Z,95916.03
2023-04-24T05:29:20.408Z,95906.34
2023-04-24T05:34:23.729Z,95884.38
2023-04-24T05:39:31.045Z,95890.66
2023-04-24T05:44:35.772Z,95892.56
2023-04-24T05:49:38.076Z,95864.94
2023-04-24T05:54:41.596Z,95874.94
2023-04-24T05:59:48.209Z,95831.44
2023-04-24T06:04:51.925Z,95841.13
2023-04-24T06:09:54.348Z,95839.31
2023-04-24T06:14:58.682Z,95844.63
2023-04-24T06:20:25.670Z,95846.97
2023-04-24T06:25:28.475Z,95850.69
2023-04-24T06:30:30.711Z,95840.84
2023-04-24T06:35:33.601Z,95816.53
2023-04-24T06:40:36.233Z,95808.38
2023-04-24T06:45:41.033Z,95821.16
2023-04-24T06:50:44.034Z,95823.91
2023-04-24T06:55:47.270Z,95812.66
2023-04-24T07:00:49.394Z,95815.63
2023-04-24T07:05:52.481Z,95803.16
2023-04-24T07:10:55.062Z,95798.66
2023-04-24T07:15:57.890Z,95812.63
2023-04-24T07:21:00.798Z,95814.91
2023-04-24T07:26:03.730Z,95827.66
2023-04-24T07:31:06.472Z,95832.34
2023-04-24T07:36:09.295Z,95829.47
2023-04-24T07:41:12.109Z,95850.78
2023-04-24T07:46:14.483Z,95842.91
2023-04-24T07:51:17.544Z,95844.13
2023-04-24T07:56:20.450Z,95837.13
2023-04-24T08:01:23.129Z,95840.06
2023-04-24T08:06:25.625Z,95840.41
2023-04-24T08:11:28.765Z,95824.09
2023-04-24T08:16:31.743Z,95827.13
2023-04-24T08:21:35.070Z,95833.56
2023-04-24T08:26:37.307Z,95829.06
2023-04-24T08:31:39.420Z,95824.91
2023-04-24T08:36:47.005Z,95824.16
2023-04-24T08:41:50.646Z,95841.03
2023-04-24T08:46:55.139Z,95823.31
2023-04-24T08:51:58.297Z,95822.78
2023-04-24T08:57:02.572Z,95831.00
2023-04-24T09:02:06.132Z,95833.81
2023-04-24T09:07:12.104Z,95840.34
2023-04-24T09:12:14.531Z,95840.03
2023-04-24T09:17:17.592Z,95822.50
2023-04-24T09:22:19.939Z,95818.44
2023-04-24T09:27:25.683Z,95820.41
2023-04-24T09:32:28.920Z,95821.84
2023-04-24T09:37:31.881Z,95822.13
2023-04-24T09:42:34.500Z,95807.34
2023-04-24T09:47:38.649Z,95797.41
2023-04-24T09:52:57.534Z,95799.84
2023-04-24T09:58:01.947Z,95779.31
2023-04-24T10:03:07.129Z,95807.63
2023-04-24T10:08:13.319Z,95801.81
2023-04-24T10:13:17.002Z,95804.56
2023-04-24T10:18:20.514Z,95798.88
2023-04-24T10:23:24.423Z,95809.97
2023-04-24T10:28:28.611Z,95797.66
2023-04-24T10:33:32.695Z,95823.94
2023-04-24T10:38:37.177Z,95805.59
2023-04-24T10:43:41.562Z,95826.19
2023-04-24T10:48:45.539Z,95827.03
2023-04-24T10:53:48.074Z,95818.22
2023-04-24T10:58:53.488Z,95816.53
2023-04-24T11:03:58.668Z,95823.91
2023-04-24T11:09:06.634Z,95810.53
2023-04-24T11:14:09.676Z,95803.00
2023-04-24T11:19:22.657Z,95799.34
2023-04-24T11:24:39.153Z,95780.16
2023-04-24T11:29:58.738Z,95782.25
2023-04-24T11:35:10.433Z,95774.97
2023-04-24T11:40:16.861Z,95760.41
2023-04-24T11:45:25.510Z,95786.53
2023-04-24T11:50:29.890Z,95779.31
2023-04-24T11:55:32.580Z,95754.59
2023-04-24T12:00:35.663Z,95756.53
2023-04-24T12:05:40.130Z,95777.16
2023-04-24T12:10:42.936Z,95772.06
2023-04-24T12:15:45.655Z,95758.38
2023-04-24T12:20:48.249Z,95753.69
2023-04-24T12:25:53.097Z,95740.91
2023-04-24T12:30:55.741Z,95715.81
2023-04-24T12:35:59.724Z,95717.16
2023-04-24T12:41:07.726Z,95699.56
2023-04-24T12:46:10.044Z,95674.34
2023-04-24T12:51:12.753Z,95663.97
2023-04-24T12:56:15.386Z,95654.38
2023-04-24T13:01:18.007Z,95635.22
2023-04-24T13:06:20.678Z,95642.63
2023-04-24T13:11:24.213Z,95617.16
2023-04-24T13:16:27.066Z,95619.06
2023-04-24T13:21:31.587Z,95625.75
2023-04-24T13:26:34.583Z,95618.44
2023-04-24T13:31:37.431Z,95607.31
2023-04-24T13:36:40.007Z,95610.13
2023-04-24T13:41:42.697Z,95589.84
2023-04-24T13:46:47.347Z,95599.66
2023-04-24T13:51:49.864Z,95594.19
2023-04-24T13:56:53.179Z,95570.88
2023-04-24T14:01:56.712Z,95602.16
2023-04-24T14:06:59.422Z,95584.19
2023-04-24T14:12:03.199Z,95580.50
2023-04-24T14:17:06.447Z,95579.03
2023-04-24T14:22:08.764Z,95577.97
2023-04-24T14:27:11.329Z,95580.50
2023-04-24T14:32:16.222Z,95594.50
2023-04-24T14:37:18.972Z,95578.97
2023-04-24T14:42:21.490Z,95587.66
2023-04-24T14:47:24.313Z,95566.41
2023-04-24T14:52:26.971Z,95602.53
2023-04-24T14:57:29.689Z,95593.59
2023-04-24T15:02:32.009Z,95596.31
2023-04-24T15:07:34.815Z,95582.94
2023-04-24T15:12:37.457Z,95597.22
2023-04-24T15:17:42.036Z,95579.75
2023-04-24T15:22:44.680Z,95583.53
2023-04-24T15:27:47.747Z,95583.63
2023-04-24T15:32:50.451Z,95567.94
2023-04-24T15:37:53.150Z,95567.00
2023-04-24T15:42:55.924Z,95575.25
2023-04-24T15:47:58.714Z,95574.47
2023-04-24T15:53:01.393Z,95571.53
2023-04-24T15:58:03.747Z,95567.81
2023-04-24T16:03:09.309Z,95566.38
2023-04-24T16:08:14.526Z,95573.72
2023-04-24T16:13:18.965Z,95566.16
2023-04-24T16:18:22.276Z,95559.97
2023-04-24T16:23:24.932Z,95567.13
2023-04-24T16:28:28.332Z,95571.56
2023-04-24T16:33:32.244Z,95591.56
2023-04-24T16:38:35.989Z,95601.28
2023-04-24T16:43:39.240Z,95611.75
2023-04-24T16:48:42.827Z,95614.97
2023-04-24T16:53:45.490Z,95612.84
2023-04-24T16:58:51.652Z,95589.66
2023-04-24T17:03:55.094Z,95625.19
2023-04-24T17:08:58.545Z,95598.84
2023-04-24T17:14:01.745Z,95617.09
2023-04-24T17:19:05.844Z,95588.66
2023-04-24T17:24:08.784Z,95639.59
2023-04-24T17:29:14.992Z,95638.47
2023-04-24T17:34:19.655Z,95612.69
2023-04-24T17:39:23.193Z,95617.72
2023-04-24T17:44:26.084Z,95585.19
2023-04-24T17:49:29.079Z,95571.00
2023-04-24T17:54:31.712Z,95607.56
2023-04-24T17:59:34.412Z,95544.81
2023-04-24T18:04:39.397Z,95560.13
2023-04-24T18:09:42.321Z,95569.34
2023-04-24T18:14:44.967Z,95556.53
2023-04-24T18:19:47.809Z,95564.44
2023-04-24T18:24:50.818Z,95522.88
2023-04-24T18:29:53.561Z,95530.75
2023-04-24T18:34:56.874Z,95514.00
2023-04-24T18:39:59.764Z,95540.31
2023-04-24T18:45:02.648Z,95522.16
2023-04-24T18:50:06.770Z,95552.59
2023-04-24T18:55:10.145Z,95557.03
2023-04-24T19:00:13.320Z,95553.69
2023-04-24T19:05:16.529Z,95570.19
2023-04-24T19:10:19.182Z,95539.97
2023-04-24T19:15:21.825Z,95515.72
2023-04-24T19:20:24.572Z,95548.69
2023-04-24T19:25:26.813Z,95546.63
2023-04-24T19:30:29.454Z,95535.38
2023-04-24T19:35:32.038Z,95527.59
2023-04-24T19:40:34.876Z,95548.13
2023-04-24T19:45:37.403Z,95553.13
2023-04-24T19:50:40.521Z,95582.50
2023-04-24T19:55:43.597Z,95583.44
2023-04-24T20:00:46.899Z,95593.72
2023-04-24T20:05:49.512Z,95574.81
2023-04-24T20:10:52.609Z,95596.03
2023-04-24T20:15:56.083Z,95607.31
2023-04-24T20:21:00.125Z,95597.16
2023-04-24T20:26:05.143Z,95632.69
2023-04-24T20:31:08.001Z,95598.88
2023-04-24T20:36:14.342Z,95607.91
2023-04-24T20:41:17.454Z,95610.75
2023-04-24T20:46:19.910Z,95622.03
2023-04-24T20:51:25.392Z,95624.16
2023-04-24T20:56:28.012Z,95612.34
2023-04-24T21:01:31.234Z,95613.22
2023-04-24T21:06:33.492Z,95612.94
2023-04-24T21:11:36.458Z,95629.88
2023-04-24T21:16:39.584Z,95596.81
2023-04-24T21:21:42.229Z,95590.28
2023-04-24T21:26:44.964Z,95585.06
2023-04-24T21:31:50.725Z,95596.09
2023-04-24T21:36:56.659Z,95579.41
2023-04-24T21:41:59.290Z,95601.00
2023-04-24T21:47:01.853Z,95590.69
2023-04-24T21:52:04.502Z,95623.34
2023-04-24T21:57:07.536Z,95602.13
2023-04-24T22:02:09.928Z,95578.63
2023-04-24T22:07:12.594Z,95572.63
2023-04-24T22:12:15.386Z,95585.28
2023-04-24T22:17:18.065Z,95608.00
2023-04-24T22:22:20.720Z,95570.34
2023-04-24T22:27:23.367Z,95589.13
2023-04-24T22:32:26.364Z,95586.59
2023-04-24T22:37:29.146Z,95585.09
2023-04-24T22:42:31.604Z,95578.22
2023-04-24T22:47:34.407Z,95593.59
2023-04-24T22:52:37.493Z,95582.66
2023-04-24T22:57:41.445Z,95578.94
2023-04-24T23:02:43.960Z,95596.41
2023-04-24T23:07:46.949Z,95568.59
2023-04-24T23:12:50.197Z,95558.75
2023-04-24T23:17:52.562Z,95589.22
2023-04-24T23:22:55.371Z,95577.69
2023-04-24T23:27:57.994Z,95564.03
2023-04-24T23:33:00.987Z,95518.88
2023-04-24T23:38:03.636Z,95548.34
2023-04-24T23:43:07.912Z,95517.38
2023-04-24T23:48:11.537Z,95490.09
2023-04-24T23:53:13.706Z,95492.56
2023-04-24T23:58:16.273Z,95489.38
